sensor_id;sensor_type;location;lat;lon;timestamp;P1;durP1;ratioP1;P2;durP2;ratioP2
19623;SDS011;9959;49.798;9.928;2023-04-24T00:01:09;1.83;;;1.33;;
19623;SDS011;9959;49.798;9.928;2023-04-24T00:03:36;2.75;;;1.52;;
19623;SDS011;9959;49.798;9.928;2023-04-24T00:06:03;1.35;;;1.13;;
19623;SDS011;9959;49.798;9.928;2023-04-24T00:08:31;2.08;;;1.50;;
19623;SDS011;9959;49.798;9.928;2023-04-24T00:10:58;4.90;;;1.60;;
19623;SDS011;9959;49.798;9.928;2023-04-24T00:13:25;1.75;;;1.40;;
19623;SDS011;9959;49.798;9.928;2023-04-24T00:15:55;3.00;;;1.58;;
19623;SDS011;9959;49.798;9.928;2023-04-24T00:18:22;2.75;;;1.10;;
19623;SDS011;9959;49.798;9.928;2023-04-24T00:20:49;2.40;;;1.30;;
19623;SDS011;9959;49.798;9.928;2023-04-24T00:23:15;3.17;;;1.20;;
19623;SDS011;9959;49.798;9.928;2023-04-24T00:25:42;3.08;;;1.40;;
19623;SDS011;9959;49.798;9.928;2023-04-24T00:28:09;2.63;;;1.30;;
19623;SDS011;9959;49.798;9.928;2023-04-24T00:30:36;2.90;;;1.40;;
19623;SDS011;9959;49.798;9.928;2023-04-24T00:33:03;1.88;;;1.23;;
19623;SDS011;9959;49.798;9.928;2023-04-24T00:35:30;2.35;;;1.48;;
19623;SDS011;9959;49.798;9.928;2023-04-24T00:37:59;1.23;;;1.13;;
19623;SDS011;9959;49.798;9.928;2023-04-24T00:40:27;2.97;;;1.70;;
19623;SDS011;9959;49.798;9.928;2023-04-24T00:42:54;2.80;;;1.27;;
19623;SDS011;9959;49.798;9.928;2023-04-24T00:45:22;7.13;;;2.65;;
19623;SDS011;9959;49.798;9.928;2023-04-24T00:47:49;3.78;;;1.25;;
19623;SDS011;9959;49.798;9.928;2023-04-24T00:50:18;2.42;;;1.40;;
19623;SDS011;9959;49.798;9.928;2023-04-24T00:52:47;3.28;;;1.45;;
19623;SDS011;9959;49.798;9.928;2023-04-24T00:55:15;6.63;;;1.40;;
19623;SDS011;9959;49.798;9.928;2023-04-24T00:57:41;1.52;;;1.13;;
19623;SDS011;9959;49.798;9.928;2023-04-24T01:00:13;1.80;;;1.27;;
19623;SDS011;9959;49.798;9.928;2023-04-24T01:02:42;2.55;;;1.20;;
19623;SDS011;9959;49.798;9.928;2023-04-24T01:05:12;2.70;;;1.50;;
19623;SDS011;9959;49.798;9.928;2023-04-24T01:07:40;3.40;;;1.30;;
19623;SDS011;9959;49.798;9.928;2023-04-24T01:10:11;1.23;;;1.02;;
19623;SDS011;9959;49.798;9.928;2023-04-24T01:12:39;1.40;;;0.93;;
19623;SDS011;9959;49.798;9.928;2023-04-24T01:15:06;2.35;;;1.20;;
19623;SDS011;9959;49.798;9.928;2023-04-24T01:17:34;5.47;;;1.42;;
19623;SDS011;9959;49.798;9.928;2023-04-24T01:20:01;2.83;;;1.23;;
19623;SDS011;9959;49.798;9.928;2023-04-24T01:22:33;3.05;;;1.20;;
19623;SDS011;9959;49.798;9.928;2023-04-24T01:25:01;1.50;;;1.13;;
19623;SDS011;9959;49.798;9.928;2023-04-24T01:27:29;1.55;;;1.15;;
19623;SDS011;9959;49.798;9.928;2023-04-24T01:29:56;2.97;;;1.20;;
19623;SDS011;9959;49.798;9.928;2023-04-24T01:32:23;5.25;;;1.25;;
19623;SDS011;9959;49.798;9.928;2023-04-24T01:34:51;2.22;;;1.30;;
19623;SDS011;9959;49.798;9.928;2023-04-24T01:37:18;2.40;;;1.00;;
19623;SDS011;9959;49.798;9.928;2023-04-24T01:39:45;2.90;;;1.20;;
19623;SDS011;9959;49.798;9.928;2023-04-24T01:42:12;1.63;;;1.10;;
19623;SDS011;9959;49.798;9.928;2023-04-24T01:44:39;1.30;;;1.10;;
19623;SDS011;9959;49.798;9.928;2023-04-24T01:47:08;1.88;;;1.40;;
19623;SDS011;9959;49.798;9.928;2023-04-24T01:49:35;3.28;;;1.25;;
19623;SDS011;9959;49.798;9.928;2023-04-24T01:52:04;2.72;;;1.35;;
19623;SDS011;9959;49.798;9.928;2023-04-24T01:54:33;5.30;;;1.48;;
19623;SDS011;9959;49.798;9.928;2023-04-24T01:57:00;2.30;;;1.13;;
19623;SDS011;9959;49.798;9.928;2023-04-24T01:59:28;2.30;;;1.13;;
19623;SDS011;9959;49.798;9.928;2023-04-24T02:01:56;3.38;;;1.20;;
19623;SDS011;9959;49.798;9.928;2023-04-24T02:04:23;3.17;;;1.30;;
19623;SDS011;9959;49.798;9.928;2023-04-24T02:06:50;2.72;;;1.20;;
19623;SDS011;9959;49.798;9.928;2023-04-24T02:09:17;2.28;;;1.35;;
19623;SDS011;9959;49.798;9.928;2023-04-24T02:11:43;1.23;;;0.95;;
19623;SDS011;9959;49.798;9.928;2023-04-24T02:14:10;2.47;;;1.10;;
19623;SDS011;9959;49.798;9.928;2023-04-24T02:16:37;1.40;;;1.27;;
19623;SDS011;9959;49.798;9.928;2023-04-24T02:19:04;2.17;;;1.40;;
19623;SDS011;9959;49.798;9.928;2023-04-24T02:21:31;2.25;;;1.10;;
19623;SDS011;9959;49.798;9.928;2023-04-24T02:23:58;1.50;;;1.27;;
19623;SDS011;9959;49.798;9.928;2023-04-24T02:26:25;1.95;;;1.25;;
19623;SDS011;9959;49.798;9.928;2023-04-24T02:28:52;2.08;;;1.20;;
19623;SDS011;9959;49.798;9.928;2023-04-24T02:31:19;3.20;;;1.30;;
19623;SDS011;9959;49.798;9.928;2023-04-24T02:33:46;2.35;;;1.30;;
19623;SDS011;9959;49.798;9.928;2023-04-24T02:36:13;1.95;;;1.15;;
19623;SDS011;9959;49.798;9.928;2023-04-24T02:38:40;1.67;;;1.20;;
19623;SDS011;9959;49.798;9.928;2023-04-24T02:41:07;1.92;;;1.25;;
19623;SDS011;9959;49.798;9.928;2023-04-24T02:43:34;2.35;;;1.20;;
19623;SDS011;9959;49.798;9.928;2023-04-24T02:46:01;3.92;;;1.23;;
19623;SDS011;9959;49.798;9.928;2023-04-24T02:48:28;1.70;;;1.00;;
19623;SDS011;9959;49.798;9.928;2023-04-24T02:50:54;3.85;;;1.40;;
19623;SDS011;9959;49.798;9.928;2023-04-24T02:53:21;2.63;;;1.38;;
19623;SDS011;9959;49.798;9.928;2023-04-24T02:55:49;1.50;;;1.40;;
19623;SDS011;9959;49.798;9.928;2023-04-24T02:58:16;2.15;;;1.40;;
19623;SDS011;9959;49.798;9.928;2023-04-24T03:00:43;4.72;;;1.20;;
19623;SDS011;9959;49.798;9.928;2023-04-24T03:03:10;2.88;;;1.17;;
19623;SDS011;9959;49.798;9.928;2023-04-24T03:05:37;3.95;;;1.70;;
19623;SDS011;9959;49.798;9.928;2023-04-24T03:08:04;2.50;;;1.20;;
19623;SDS011;9959;49.798;9.928;2023-04-24T03:10:31;2.08;;;1.20;;
19623;SDS011;9959;49.798;9.928;2023-04-24T03:12:58;5.68;;;1.58;;
19623;SDS011;9959;49.798;9.928;2023-04-24T03:15:25;1.60;;;1.20;;
19623;SDS011;9959;49.798;9.928;2023-04-24T03:17:53;2.53;;;1.50;;
19623;SDS011;9959;49.798;9.928;2023-04-24T03:20:22;3.58;;;1.50;;
19623;SDS011;9959;49.798;9.928;2023-04-24T03:22:49;4.32;;;1.60;;
19623;SDS011;9959;49.798;9.928;2023-04-24T03:25:16;4.13;;;1.20;;
19623;SDS011;9959;49.798;9.928;2023-04-24T03:27:42;1.35;;;1.23;;
19623;SDS011;9959;49.798;9.928;2023-04-24T03:30:09;3.92;;;1.55;;
19623;SDS011;9959;49.798;9.928;2023-04-24T03:32:36;3.00;;;1.40;;
19623;SDS011;9959;49.798;9.928;2023-04-24T03:35:06;2.67;;;1.50;;
19623;SDS011;9959;49.798;9.928;2023-04-24T03:37:34;4.85;;;1.30;;
19623;SDS011;9959;49.798;9.928;2023-04-24T03:40:01;4.00;;;1.70;;
19623;SDS011;9959;49.798;9.928;2023-04-24T03:42:29;4.13;;;1.33;;
19623;SDS011;9959;49.798;9.928;2023-04-24T03:44:56;1.80;;;1.30;;
19623;SDS011;9959;49.798;9.928;2023-04-24T03:47:23;3.75;;;1.38;;
19623;SDS011;9959;49.798;9.928;2023-04-24T03:49:49;5.80;;;1.50;;
19623;SDS011;9959;49.798;9.928;2023-04-24T03:52:16;1.60;;;1.13;;
19623;SDS011;9959;49.798;9.928;2023-04-24T03:54:43;1.88;;;1.20;;
19623;SDS011;9959;49.798;9.928;2023-04-24T03:57:10;4.85;;;1.50;;
19623;SDS011;9959;49.798;9.928;2023-04-24T03:59:37;2.67;;;1.45;;
19623;SDS011;9959;49.798;9.928;2023-04-24T04:02:03;5.13;;;1.50;;
19623;SDS011;9959;49.798;9.928;2023-04-24T04:04:30;2.20;;;1.25;;
19623;SDS011;9959;49.798;9.928;2023-04-24T04:06:58;2.38;;;1.70;;
19623;SDS011;9959;49.798;9.928;2023-04-24T04:09:27;1.95;;;1.42;;
19623;SDS011;9959;49.798;9.928;2023-04-24T04:11:54;2.13;;;1.30;;
19623;SDS011;9959;49.798;9.928;2023-04-24T04:14:21;4.53;;;2.30;;
19623;SDS011;9959;49.798;9.928;2023-04-24T04:16:49;5.32;;;1.73;;
19623;SDS011;9959;49.798;9.928;2023-04-24T04:19:19;3.88;;;1.70;;
19623;SDS011;9959;49.798;9.928;2023-04-24T04:21:46;2.45;;;1.58;;
19623;SDS011;9959;49.798;9.928;2023-04-24T04:24:18;2.45;;;1.40;;
19623;SDS011;9959;49.798;9.928;2023-04-24T04:26:47;5.00;;;1.42;;
19623;SDS011;9959;49.798;9.928;2023-04-24T04:29:13;5.53;;;1.58;;
19623;SDS011;9959;49.798;9.928;2023-04-24T04:31:44;2.50;;;1.50;;
19623;SDS011;9959;49.798;9.928;2023-04-24T04:34:11;2.47;;;1.50;;
19623;SDS011;9959;49.798;9.928;2023-04-24T04:36:39;3.47;;;1.90;;
19623;SDS011;9959;49.798;9.928;2023-04-24T04:39:06;4.03;;;1.90;;
19623;SDS011;9959;49.798;9.928;2023-04-24T04:41:33;7.53;;;1.90;;
19623;SDS011;9959;49.798;9.928;2023-04-24T04:44:04;7.50;;;2.20;;
19623;SDS011;9959;49.798;9.928;2023-04-24T04:46:31;4.05;;;1.90;;
19623;SDS011;9959;49.798;9.928;2023-04-24T04:48:59;3.63;;;1.65;;
19623;SDS011;9959;49.798;9.928;2023-04-24T04:51:27;3.08;;;1.70;;
19623;SDS011;9959;49.798;9.928;2023-04-24T04:53:54;4.70;;;1.83;;
19623;SDS011;9959;49.798;9.928;2023-04-24T04:56:21;3.80;;;1.40;;
19623;SDS011;9959;49.798;9.928;2023-04-24T04:58:48;3.65;;;1.65;;
19623;SDS011;9959;49.798;9.928;2023-04-24T05:01:15;2.50;;;1.48;;
19623;SDS011;9959;49.798;9.928;2023-04-24T05:03:42;2.65;;;1.42;;
19623;SDS011;9959;49.798;9.928;2023-04-24T05:06:09;3.63;;;1.48;;
19623;SDS011;9959;49.798;9.928;2023-04-24T05:08:36;1.75;;;1.30;;
19623;SDS011;9959;49.798;9.928;2023-04-24T05:11:03;5.45;;;1.65;;
19623;SDS011;9959;49.798;9.928;2023-04-24T05:13:30;2.33;;;1.58;;
19623;SDS011;9959;49.798;9.928;2023-04-24T05:16:06;3.63;;;1.50;;
19623;SDS011;9959;49.798;9.928;2023-04-24T05:18:33;4.25;;;1.67;;
19623;SDS011;9959;49.798;9.928;2023-04-24T05:21:00;5.47;;;1.90;;
19623;SDS011;9959;49.798;9.928;2023-04-24T05:23:27;3.10;;;1.40;;
19623;SDS011;9959;49.798;9.928;2023-04-24T05:25:54;2.85;;;1.40;;
19623;SDS011;9959;49.798;9.928;2023-04-24T05:28:21;2.00;;;1.60;;
19623;SDS011;9959;49.798;9.928;2023-04-24T05:30:48;4.55;;;1.83;;
19623;SDS011;9959;49.798;9.928;2023-04-24T05:33:15;2.33;;;1.50;;
19623;SDS011;9959;49.798;9.928;2023-04-24T05:35:42;3.20;;;1.77;;
19623;SDS011;9959;49.798;9.928;2023-04-24T05:38:13;3.90;;;1.90;;
19623;SDS011;9959;49.798;9.928;2023-04-24T05:40:40;1.77;;;1.60;;
19623;SDS011;9959;49.798;9.928;2023-04-24T05:43:07;1.85;;;1.55;;
19623;SDS011;9959;49.798;9.928;2023-04-24T05:45:34;7.18;;;1.83;;
19623;SDS011;9959;49.798;9.928;2023-04-24T05:48:02;2.45;;;1.50;;
19623;SDS011;9959;49.798;9.928;2023-04-24T05:50:29;2.00;;;1.70;;
19623;SDS011;9959;49.798;9.928;2023-04-24T05:52:56;2.85;;;1.55;;
19623;SDS011;9959;49.798;9.928;2023-04-24T05:55:28;6.63;;;2.00;;
19623;SDS011;9959;49.798;9.928;2023-04-24T05:57:54;3.97;;;1.83;;
19623;SDS011;9959;49.798;9.928;2023-04-24T06:00:21;6.75;;;1.90;;
19623;SDS011;9959;49.798;9.928;2023-04-24T06:02:48;2.28;;;1.52;;
19623;SDS011;9959;49.798;9.928;2023-04-24T06:05:16;2.17;;;1.60;;
19623;SDS011;9959;49.798;9.928;2023-04-24T06:07:42;2.38;;;1.75;;
19623;SDS011;9959;49.798;9.928;2023-04-24T06:10:09;2.97;;;1.60;;
19623;SDS011;9959;49.798;9.928;2023-04-24T06:12:36;3.25;;;1.75;;
19623;SDS011;9959;49.798;9.928;2023-04-24T06:15:03;3.10;;;1.92;;
19623;SDS011;9959;49.798;9.928;2023-04-24T06:17:31;3.42;;;2.13;;
19623;SDS011;9959;49.798;9.928;2023-04-24T06:19:58;4.43;;;1.90;;
19623;SDS011;9959;49.798;9.928;2023-04-24T06:22:25;8.00;;;1.70;;
19623;SDS011;9959;49.798;9.928;2023-04-24T06:24:52;5.93;;;1.80;;
19623;SDS011;9959;49.798;9.928;2023-04-24T06:27:19;2.78;;;1.80;;
19623;SDS011;9959;49.798;9.928;2023-04-24T06:29:46;4.68;;;1.70;;
19623;SDS011;9959;49.798;9.928;2023-04-24T06:32:18;3.72;;;1.85;;
19623;SDS011;9959;49.798;9.928;2023-04-24T06:34:45;3.25;;;1.75;;
19623;SDS011;9959;49.798;9.928;2023-04-24T06:37:12;4.10;;;2.03;;
19623;SDS011;9959;49.798;9.928;2023-04-24T06:39:40;3.00;;;1.63;;
19623;SDS011;9959;49.798;9.928;2023-04-24T06:42:07;4.32;;;1.80;;
19623;SDS011;9959;49.798;9.928;2023-04-24T06:44:35;2.10;;;1.60;;
19623;SDS011;9959;49.798;9.928;2023-04-24T06:47:07;2.78;;;1.77;;
19623;SDS011;9959;49.798;9.928;2023-04-24T06:49:35;2.00;;;1.80;;
19623;SDS011;9959;49.798;9.928;2023-04-24T06:52:03;2.30;;;1.90;;
19623;SDS011;9959;49.798;9.928;2023-04-24T06:54:30;5.22;;;2.15;;
19623;SDS011;9959;49.798;9.928;2023-04-24T06:56:57;5.45;;;2.33;;
19623;SDS011;9959;49.798;9.928;2023-04-24T06:59:24;4.95;;;2.25;;
19623;SDS011;9959;49.798;9.928;2023-04-24T07:01:51;3.08;;;2.03;;
19623;SDS011;9959;49.798;9.928;2023-04-24T07:04:20;3.50;;;2.20;;
19623;SDS011;9959;49.798;9.928;2023-04-24T07:06:48;3.60;;;2.45;;
19623;SDS011;9959;49.798;9.928;2023-04-24T07:09:19;3.22;;;2.13;;
19623;SDS011;9959;49.798;9.928;2023-04-24T07:11:46;2.97;;;2.20;;
19623;SDS011;9959;49.798;9.928;2023-04-24T07:14:13;4.65;;;2.10;;
19623;SDS011;9959;49.798;9.928;2023-04-24T07:16:40;2.33;;;2.03;;
19623;SDS011;9959;49.798;9.928;2023-04-24T07:19:08;3.38;;;2.25;;
19623;SDS011;9959;49.798;9.928;2023-04-24T07:21:35;4.03;;;2.45;;
19623;SDS011;9959;49.798;9.928;2023-04-24T07:24:01;5.45;;;2.45;;
19623;SDS011;9959;49.798;9.928;2023-04-24T07:26:29;4.18;;;2.30;;
19623;SDS011;9959;49.798;9.928;2023-04-24T07:28:56;2.33;;;2.13;;
19623;SDS011;9959;49.798;9.928;2023-04-24T07:31:23;3.88;;;2.25;;
19623;SDS011;9959;49.798;9.928;2023-04-24T07:33:51;5.25;;;2.97;;
19623;SDS011;9959;49.798;9.928;2023-04-24T07:36:18;6.00;;;2.92;;
19623;SDS011;9959;49.798;9.928;2023-04-24T07:38:45;4.45;;;2.45;;
19623;SDS011;9959;49.798;9.928;2023-04-24T07:41:13;9.48;;;3.03;;
19623;SDS011;9959;49.798;9.928;2023-04-24T07:43:40;4.43;;;2.45;;
19623;SDS011;9959;49.798;9.928;2023-04-24T07:46:08;4.10;;;2.40;;
19623;SDS011;9959;49.798;9.928;2023-04-24T07:48:36;4.32;;;2.75;;
19623;SDS011;9959;49.798;9.928;2023-04-24T07:51:03;5.82;;;2.40;;
19623;SDS011;9959;49.798;9.928;2023-04-24T07:53:30;4.13;;;2.40;;
19623;SDS011;9959;49.798;9.928;2023-04-24T07:55:57;3.20;;;2.33;;
19623;SDS011;9959;49.798;9.928;2023-04-24T07:58:23;4.55;;;2.50;;
19623;SDS011;9959;49.798;9.928;2023-04-24T08:00:50;5.15;;;2.72;;
19623;SDS011;9959;49.798;9.928;2023-04-24T08:03:17;3.72;;;2.40;;
19623;SDS011;9959;49.798;9.928;2023-04-24T08:05:46;8.77;;;3.15;;
19623;SDS011;9959;49.798;9.928;2023-04-24T08:08:13;5.68;;;2.97;;
19623;SDS011;9959;49.798;9.928;2023-04-24T08:10:40;7.13;;;2.80;;
19623;SDS011;9959;49.798;9.928;2023-04-24T08:13:07;7.20;;;2.80;;
19623;SDS011;9959;49.798;9.928;2023-04-24T08:15:34;6.28;;;2.70;;
19623;SDS011;9959;49.798;9.928;2023-04-24T08:18:01;5.07;;;2.95;;
19623;SDS011;9959;49.798;9.928;2023-04-24T08:20:27;6.65;;;3.00;;
19623;SDS011;9959;49.798;9.928;2023-04-24T08:22:54;4.35;;;2.90;;
19623;SDS011;9959;49.798;9.928;2023-04-24T08:25:22;5.30;;;2.92;;
19623;SDS011;9959;49.798;9.928;2023-04-24T08:27:51;3.30;;;2.53;;
19623;SDS011;9959;49.798;9.928;2023-04-24T08:30:18;4.05;;;2.75;;
19623;SDS011;9959;49.798;9.928;2023-04-24T08:32:45;8.38;;;3.20;;
19623;SDS011;9959;49.798;9.928;2023-04-24T08:35:12;4.05;;;2.80;;
19623;SDS011;9959;49.798;9.928;2023-04-24T08:37:39;3.72;;;2.75;;
19623;SDS011;9959;49.798;9.928;2023-04-24T08:40:08;3.45;;;2.85;;
19623;SDS011;9959;49.798;9.928;2023-04-24T08:42:43;4.47;;;2.67;;
19623;SDS011;9959;49.798;9.928;2023-04-24T08:45:11;5.03;;;2.60;;
19623;SDS011;9959;49.798;9.928;2023-04-24T08:47:39;4.10;;;2.60;;
19623;SDS011;9959;49.798;9.928;2023-04-24T08:50:08;5.00;;;2.80;;
19623;SDS011;9959;49.798;9.928;2023-04-24T08:52:36;5.80;;;2.50;;
19623;SDS011;9959;49.798;9.928;2023-04-24T08:55:03;3.92;;;2.67;;
19623;SDS011;9959;49.798;9.928;2023-04-24T08:57:30;3.00;;;2.70;;
19623;SDS011;9959;49.798;9.928;2023-04-24T08:59:58;5.30;;;2.40;;
19623;SDS011;9959;49.798;9.928;2023-04-24T09:02:26;3.42;;;2.40;;
19623;SDS011;9959;49.798;9.928;2023-04-24T09:04:54;4.25;;;2.10;;
19623;SDS011;9959;49.798;9.928;2023-04-24T09:07:23;3.90;;;1.70;;
19623;SDS011;9959;49.798;9.928;2023-04-24T09:09:52;3.03;;;2.10;;
19623;SDS011;9959;49.798;9.928;2023-04-24T09:12:19;3.17;;;1.50;;
19623;SDS011;9959;49.798;9.928;2023-04-24T09:14:47;4.72;;;1.67;;
19623;SDS011;9959;49.798;9.928;2023-04-24T09:17:15;2.90;;;1.58;;
19623;SDS011;9959;49.798;9.928;2023-04-24T09:19:41;1.70;;;1.50;;
19623;SDS011;9959;49.798;9.928;2023-04-24T09:22:09;1.52;;;1.40;;
19623;SDS011;9959;49.798;9.928;2023-04-24T09:24:37;3.63;;;1.67;;
19623;SDS011;9959;49.798;9.928;2023-04-24T09:27:05;3.03;;;1.65;;
19623;SDS011;9959;49.798;9.928;2023-04-24T09:29:32;1.55;;;1.45;;
19623;SDS011;9959;49.798;9.928;2023-04-24T09:31:59;2.17;;;1.40;;
19623;SDS011;9959;49.798;9.928;2023-04-24T09:34:44;4.95;;;1.52;;
19623;SDS011;9959;49.798;9.928;2023-04-24T09:37:29;3.15;;;1.55;;
19623;SDS011;9959;49.798;9.928;2023-04-24T09:43:04;2.50;;;1.70;;
19623;SDS011;9959;49.798;9.928;2023-04-24T09:45:39;3.13;;;1.48;;
19623;SDS011;9959;49.798;9.928;2023-04-24T09:48:09;2.80;;;1.58;;
19623;SDS011;9959;49.798;9.928;2023-04-24T09:50:37;3.13;;;1.45;;
19623;SDS011;9959;49.798;9.928;2023-04-24T09:53:05;1.77;;;1.65;;
19623;SDS011;9959;49.798;9.928;2023-04-24T09:55:38;2.35;;;1.70;;
19623;SDS011;9959;49.798;9.928;2023-04-24T09:58:07;2.00;;;1.80;;
19623;SDS011;9959;49.798;9.928;2023-04-24T10:00:34;3.92;;;1.77;;
19623;SDS011;9959;49.798;9.928;2023-04-24T10:03:02;2.00;;;1.80;;
19623;SDS011;9959;49.798;9.928;2023-04-24T10:05:34;2.22;;;1.70;;
19623;SDS011;9959;49.798;9.928;2023-04-24T10:08:03;2.90;;;2.00;;
19623;SDS011;9959;49.798;9.928;2023-04-24T10:10:36;3.40;;;1.65;;
19623;SDS011;9959;49.798;9.928;2023-04-24T10:13:07;3.05;;;2.10;;
19623;SDS011;9959;49.798;9.928;2023-04-24T10:15:36;3.90;;;2.10;;
19623;SDS011;9959;49.798;9.928;2023-04-24T10:18:04;3.13;;;2.00;;
19623;SDS011;9959;49.798;9.928;2023-04-24T10:20:33;3.20;;;1.85;;
19623;SDS011;9959;49.798;9.928;2023-04-24T10:23:01;3.75;;;2.00;;
19623;SDS011;9959;49.798;9.928;2023-04-24T10:25:29;4.45;;;1.90;;
19623;SDS011;9959;49.798;9.928;2023-04-24T10:27:57;6.75;;;2.08;;
19623;SDS011;9959;49.798;9.928;2023-04-24T10:30:30;2.83;;;2.20;;
19623;SDS011;9959;49.798;9.928;2023-04-24T10:33:02;4.70;;;2.42;;
19623;SDS011;9959;49.798;9.928;2023-04-24T10:35:31;2.47;;;2.00;;
19623;SDS011;9959;49.798;9.928;2023-04-24T10:38:06;2.70;;;2.50;;
19623;SDS011;9959;49.798;9.928;2023-04-24T10:40:36;2.53;;;2.20;;
19623;SDS011;9959;49.798;9.928;2023-04-24T10:43:05;2.65;;;2.45;;
19623;SDS011;9959;49.798;9.928;2023-04-24T10:45:38;3.60;;;2.30;;
19623;SDS011;9959;49.798;9.928;2023-04-24T10:48:06;5.20;;;2.40;;
19623;SDS011;9959;49.798;9.928;2023-04-24T10:53:17;6.10;;;3.33;;
19623;SDS011;9959;49.798;9.928;2023-04-24T10:55:50;5.55;;;2.75;;
19623;SDS011;9959;49.798;9.928;2023-04-24T10:58:21;4.50;;;2.42;;
19623;SDS011;9959;49.798;9.928;2023-04-24T11:00:59;4.75;;;2.53;;
19623;SDS011;9959;49.798;9.928;2023-04-24T11:03:30;4.05;;;2.22;;
19623;SDS011;9959;49.798;9.928;2023-04-24T11:11:03;2.70;;;2.13;;
19623;SDS011;9959;49.798;9.928;2023-04-24T11:16:21;4.45;;;2.47;;
19623;SDS011;9959;49.798;9.928;2023-04-24T11:19:08;3.25;;;2.30;;
19623;SDS011;9959;49.798;9.928;2023-04-24T11:34:54;4.03;;;2.30;;
19623;SDS011;9959;49.798;9.928;2023-04-24T11:37:25;3.45;;;2.00;;
19623;SDS011;9959;49.798;9.928;2023-04-24T11:39:54;5.40;;;2.33;;
19623;SDS011;9959;49.798;9.928;2023-04-24T11:42:22;3.97;;;2.25;;
19623;SDS011;9959;49.798;9.928;2023-04-24T11:44:52;4.65;;;2.45;;
19623;SDS011;9959;49.798;9.928;2023-04-24T11:47:19;3.20;;;2.20;;
19623;SDS011;9959;49.798;9.928;2023-04-24T11:49:49;3.20;;;2.28;;
19623;SDS011;9959;49.798;9.928;2023-04-24T11:52:16;5.70;;;2.33;;
19623;SDS011;9959;49.798;9.928;2023-04-24T11:54:47;9.50;;;2.65;;
19623;SDS011;9959;49.798;9.928;2023-04-24T11:57:20;8.82;;;4.00;;
19623;SDS011;9959;49.798;9.928;2023-04-24T11:59:49;5.97;;;3.40;;
19623;SDS011;9959;49.798;9.928;2023-04-24T12:02:22;1.67;;;1.58;;
19623;SDS011;9959;49.798;9.928;2023-04-24T12:04:54;3.53;;;1.90;;
19623;SDS011;9959;49.798;9.928;2023-04-24T12:07:22;3.53;;;1.52;;
19623;SDS011;9959;49.798;9.928;2023-04-24T12:09:57;2.65;;;2.25;;
19623;SDS011;9959;49.798;9.928;2023-04-24T12:12:27;3.03;;;1.92;;
19623;SDS011;9959;49.798;9.928;2023-04-24T12:14:55;4.88;;;2.50;;
19623;SDS011;9959;49.798;9.928;2023-04-24T12:17:26;4.65;;;1.80;;
19623;SDS011;9959;49.798;9.928;2023-04-24T12:20:00;1.70;;;1.50;;
19623;SDS011;9959;49.798;9.928;2023-04-24T12:22:45;1.80;;;1.48;;
19623;SDS011;9959;49.798;9.928;2023-04-24T12:25:14;2.83;;;1.70;;
19623;SDS011;9959;49.798;9.928;2023-04-24T12:27:43;2.50;;;1.70;;
19623;SDS011;9959;49.798;9.928;2023-04-24T12:30:15;1.98;;;1.58;;
19623;SDS011;9959;49.798;9.928;2023-04-24T12:32:44;2.03;;;1.70;;
19623;SDS011;9959;49.798;9.928;2023-04-24T12:35:14;5.40;;;1.70;;
19623;SDS011;9959;49.798;9.928;2023-04-24T12:37:47;2.92;;;1.48;;
19623;SDS011;9959;49.798;9.928;2023-04-24T12:40:14;2.05;;;1.65;;
19623;SDS011;9959;49.798;9.928;2023-04-24T12:42:43;3.30;;;1.70;;
19623;SDS011;9959;49.798;9.928;2023-04-24T12:45:12;4.40;;;1.70;;
19623;SDS011;9959;49.798;9.928;2023-04-24T12:47:40;2.88;;;1.48;;
19623;SDS011;9959;49.798;9.928;2023-04-24T12:50:10;3.40;;;1.83;;
19623;SDS011;9959;49.798;9.928;2023-04-24T12:52:38;3.10;;;1.90;;
19623;SDS011;9959;49.798;9.928;2023-04-24T12:55:06;3.15;;;1.67;;
19623;SDS011;9959;49.798;9.928;2023-04-24T12:57:37;7.82;;;2.00;;
19623;SDS011;9959;49.798;9.928;2023-04-24T13:00:06;4.13;;;1.85;;
19623;SDS011;9959;49.798;9.928;2023-04-24T13:02:34;3.55;;;2.20;;
19623;SDS011;9959;49.798;9.928;2023-04-24T13:05:01;5.68;;;3.55;;
19623;SDS011;9959;49.798;9.928;2023-04-24T13:07:29;4.53;;;2.08;;
19623;SDS011;9959;49.798;9.928;2023-04-24T13:09:56;5.35;;;2.30;;
19623;SDS011;9959;49.798;9.928;2023-04-24T13:12:24;2.10;;;1.90;;
19623;SDS011;9959;49.798;9.928;2023-04-24T13:14:53;2.67;;;1.80;;
19623;SDS011;9959;49.798;9.928;2023-04-24T13:17:20;4.25;;;1.70;;
19623;SDS011;9959;49.798;9.928;2023-04-24T13:19:49;3.42;;;1.92;;
19623;SDS011;9959;49.798;9.928;2023-04-24T13:22:18;5.05;;;2.20;;
19623;SDS011;9959;49.798;9.928;2023-04-24T13:24:45;3.92;;;2.08;;
19623;SDS011;9959;49.798;9.928;2023-04-24T13:27:15;2.38;;;2.00;;
19623;SDS011;9959;49.798;9.928;2023-04-24T13:29:43;3.50;;;2.17;;
19623;SDS011;9959;49.798;9.928;2023-04-24T13:32:10;2.95;;;1.80;;
19623;SDS011;9959;49.798;9.928;2023-04-24T13:34:37;8.55;;;1.80;;
19623;SDS011;9959;49.798;9.928;2023-04-24T13:37:06;5.35;;;1.92;;
19623;SDS011;9959;49.798;9.928;2023-04-24T13:39:34;2.45;;;1.98;;
19623;SDS011;9959;49.798;9.928;2023-04-24T13:42:02;2.67;;;1.85;;
19623;SDS011;9959;49.798;9.928;2023-04-24T13:44:30;4.40;;;2.33;;
19623;SDS011;9959;49.798;9.928;2023-04-24T13:46:58;2.75;;;2.00;;
19623;SDS011;9959;49.798;9.928;2023-04-24T13:49:26;3.58;;;2.72;;
19623;SDS011;9959;49.798;9.928;2023-04-24T13:51:54;4.18;;;2.70;;
19623;SDS011;9959;49.798;9.928;2023-04-24T13:54:23;4.35;;;2.50;;
19623;SDS011;9959;49.798;9.928;2023-04-24T13:56:52;4.13;;;2.47;;
19623;SDS011;9959;49.798;9.928;2023-04-24T13:59:23;9.30;;;4.32;;
19623;SDS011;9959;49.798;9.928;2023-04-24T14:01:50;7.22;;;4.38;;
19623;SDS011;9959;49.798;9.928;2023-04-24T14:04:20;5.70;;;2.10;;
19623;SDS011;9959;49.798;9.928;2023-04-24T14:06:48;5.03;;;2.58;;
19623;SDS011;9959;49.798;9.928;2023-04-24T14:09:15;2.40;;;2.00;;
19623;SDS011;9959;49.798;9.928;2023-04-24T14:11:42;2.85;;;2.00;;
19623;SDS011;9959;49.798;9.928;2023-04-24T14:14:10;4.78;;;2.42;;
19623;SDS011;9959;49.798;9.928;2023-04-24T14:16:38;5.32;;;2.75;;
19623;SDS011;9959;49.798;9.928;2023-04-24T14:19:05;3.75;;;2.67;;
19623;SDS011;9959;49.798;9.928;2023-04-24T14:21:32;7.85;;;3.45;;
19623;SDS011;9959;49.798;9.928;2023-04-24T14:24:01;3.97;;;2.72;;
19623;SDS011;9959;49.798;9.928;2023-04-24T14:26:28;5.18;;;3.67;;
19623;SDS011;9959;49.798;9.928;2023-04-24T14:28:55;4.97;;;3.20;;
19623;SDS011;9959;49.798;9.928;2023-04-24T14:31:40;4.68;;;2.40;;
19623;SDS011;9959;49.798;9.928;2023-04-24T14:34:08;4.35;;;2.60;;
19623;SDS011;9959;49.798;9.928;2023-04-24T14:36:35;4.18;;;2.97;;
19623;SDS011;9959;49.798;9.928;2023-04-24T14:39:03;2.90;;;2.40;;
19623;SDS011;9959;49.798;9.928;2023-04-24T14:41:34;5.53;;;2.72;;
19623;SDS011;9959;49.798;9.928;2023-04-24T14:44:02;4.05;;;2.60;;
19623;SDS011;9959;49.798;9.928;2023-04-24T14:46:31;4.22;;;3.17;;
19623;SDS011;9959;49.798;9.928;2023-04-24T14:49:00;5.43;;;3.05;;
19623;SDS011;9959;49.798;9.928;2023-04-24T14:51:29;6.32;;;3.00;;
19623;SDS011;9959;49.798;9.928;2023-04-24T14:53:57;2.53;;;2.33;;
19623;SDS011;9959;49.798;9.928;2023-04-24T14:56:25;3.67;;;2.00;;
19623;SDS011;9959;49.798;9.928;2023-04-24T14:58:52;2.75;;;2.08;;
19623;SDS011;9959;49.798;9.928;2023-04-24T15:01:20;3.92;;;2.25;;
19623;SDS011;9959;49.798;9.928;2023-04-24T15:03:48;3.72;;;2.45;;
19623;SDS011;9959;49.798;9.928;2023-04-24T15:06:15;7.60;;;2.83;;
19623;SDS011;9959;49.798;9.928;2023-04-24T15:08:42;5.20;;;2.65;;
19623;SDS011;9959;49.798;9.928;2023-04-24T15:11:10;3.42;;;2.50;;
19623;SDS011;9959;49.798;9.928;2023-04-24T15:13:37;3.60;;;2.60;;
19623;SDS011;9959;49.798;9.928;2023-04-24T15:16:08;3.03;;;2.33;;
19623;SDS011;9959;49.798;9.928;2023-04-24T15:18:35;3.67;;;2.55;;
19623;SDS011;9959;49.798;9.928;2023-04-24T15:21:02;4.22;;;2.80;;
19623;SDS011;9959;49.798;9.928;2023-04-24T15:23:29;4.55;;;3.03;;
19623;SDS011;9959;49.798;9.928;2023-04-24T15:25:56;4.50;;;3.05;;
19623;SDS011;9959;49.798;9.928;2023-04-24T15:28:24;7.40;;;3.38;;
19623;SDS011;9959;49.798;9.928;2023-04-24T15:30:51;7.13;;;3.35;;
19623;SDS011;9959;49.798;9.928;2023-04-24T15:33:18;7.85;;;3.50;;